Lady Joyelle — WDH2555 — position and weather

sailwx.info

Track history (hours):
 
Tides and Currents Weather Stations Pressure Air Temp Water Temp Dewpoint Dewpoint Depression Visibility Wind Speed Wind Dir Waves Ship Positions

Lady Joyelle

Owner: Deep South Marine, LLC, Belle Chasse, LA. More information available from US FCC via Universal Licensing System and Coast Guard Vessel Documentation Center.

Last reported at 2017-Nov-12 06:23 UTC. Time now 2017-Nov-18 23:24 UTC.
Position N 29°33' W 090°28'.

Length 23 m.

Type: Tug. MMSI: 367598830.

Date/timePositionNaut miles runAvg speedWind from/ knotsBaromVisibWave heightAir tempDewpointWater temp
2017-Nov-12 06:23N 29°33' W 090°28'3 8.7
2017-Nov-12 06:00N 29°34' W 090°32'4 8.2
2017-Nov-12 05:30N 29°35' W 090°36'3 6.2
2017-Nov-12 05:00N 29°36' W 090°39'3 5.7
2017-Nov-12 04:30N 29°36' W 090°43'4 7.4
2017-Nov-12 04:00N 29°32' W 090°42'4 8.4
2017-Nov-12 03:30N 29°28' W 090°43'4 7.7
2017-Nov-12 02:57N 29°24' W 090°44'3 5.3
2017-Nov-12 02:26N 29°25' W 090°47'2 4.7
2017-Nov-12 01:59N 29°25' W 090°49'2 0.1
2017-Nov-11 13:52N 29°25' W 090°51'6 3.8
2017-Nov-11 12:15N 29°24' W 090°44'1 6.2
2017-Nov-11 12:00N 29°26' W 090°43'3 5.9
2017-Nov-11 11:30N 29°29' W 090°43'3 5.5
2017-Nov-11 11:00N 29°31' W 090°42'1 2.1
2017-Nov-11 10:30N 29°33' W 090°42'3 5.2
2017-Nov-11 10:00N 29°35' W 090°43'2 3.1
2017-Nov-11 09:30N 29°37' W 090°43'1 1.6
2017-Nov-11 09:00N 29°37' W 090°42'3 6.1
2017-Nov-11 08:30N 29°35' W 090°38'3 5.9
2017-Nov-11 08:00N 29°35' W 090°35'3 6.0
2017-Nov-11 07:30N 29°34' W 090°32'3 6.2
2017-Nov-11 07:00N 29°34' W 090°28'  
Track history (hours):
 
Tides and Currents Weather Stations Pressure Air Temp Water Temp Dewpoint Dewpoint Depression Visibility Wind Speed Wind Dir Waves Ship Positions

Lady Joyelle

Owner: Deep South Marine, LLC, Belle Chasse, LA. More information available from US FCC via Universal Licensing System and Coast Guard Vessel Documentation Center.

Last reported at 2017-Nov-12 06:23 UTC. Time now 2017-Nov-18 23:24 UTC.
Position N 29°33' W 090°28'.

Length 23 m.

Type: Tug. MMSI: 367598830.

Date/timePositionNaut miles runAvg speedWind from/ knotsBaromVisibWave heightAir tempDewpointWater temp
2017-Nov-12 06:23N 29°33' W 090°28'3 8.7
2017-Nov-12 06:00N 29°34' W 090°32'4 8.2
2017-Nov-12 05:30N 29°35' W 090°36'3 6.2
2017-Nov-12 05:00N 29°36' W 090°39'3 5.7
2017-Nov-12 04:30N 29°36' W 090°43'4 7.4
2017-Nov-12 04:00N 29°32' W 090°42'4 8.4
2017-Nov-12 03:30N 29°28' W 090°43'4 7.7
2017-Nov-12 02:57N 29°24' W 090°44'3 5.3
2017-Nov-12 02:26N 29°25' W 090°47'2 4.7
2017-Nov-12 01:59N 29°25' W 090°49'2 0.1
2017-Nov-11 13:52N 29°25' W 090°51'6 3.8
2017-Nov-11 12:15N 29°24' W 090°44'1 6.2
2017-Nov-11 12:00N 29°26' W 090°43'3 5.9
2017-Nov-11 11:30N 29°29' W 090°43'3 5.5
2017-Nov-11 11:00N 29°31' W 090°42'1 2.1
2017-Nov-11 10:30N 29°33' W 090°42'3 5.2
2017-Nov-11 10:00N 29°35' W 090°43'2 3.1
2017-Nov-11 09:30N 29°37' W 090°43'1 1.6
2017-Nov-11 09:00N 29°37' W 090°42'3 6.1
2017-Nov-11 08:30N 29°35' W 090°38'3 5.9
2017-Nov-11 08:00N 29°35' W 090°35'3 6.0
2017-Nov-11 07:30N 29°34' W 090°32'3 6.2
2017-Nov-11 07:00N 29°34' W 090°28'  

Dump ship's entire track history